This is the latest recevied weather packets stored in our database for station/object WK7G. If no packets are shown the sender has not sent any weather packets the latest 10 day(s).
| Time | Temp. | Humidity | Pressure | Rain* | Wind** | Luminosity | Snow |
|---|---|---|---|---|---|---|---|
| 1777448385 | 0° C | 71% | 1013.3 hPa | 0 mm | - | 0 W/m² | - |
| 1777448081 | 0° C | 74% | 1013.4 hPa | 0 mm | - | 0 W/m² | - |
| 1777447777 | 0° C | 72% | 1013.3 hPa | 0 mm | - | 0 W/m² | - |
| 1777447473 | 0.56° C | 72% | 1013.3 hPa | 0 mm | - | 0 W/m² | - |
| 1777447170 | 1.67° C | 65% | 1013.3 hPa | 0 mm | - | 0 W/m² | - |
| 1777446869 | 2.22° C | 62% | 1013.3 hPa | 0 mm | - | 0 W/m² | - |
| 1777446565 | 2.78° C | 60% | 1013.3 hPa | 0 mm | - | 0 W/m² | - |
| 1777446261 | 2.22° C | 62% | 1013.6 hPa | 0 mm | - | 0 W/m² | - |
| 1777445959 | 2.22° C | 62% | 1013.6 hPa | 0 mm | - | 0 W/m² | - |
| 1777445654 | 2.22° C | 63% | 1013.6 hPa | 0 mm | - | 0 W/m² | - |
| 1777445350 | 2.22° C | 63% | 1013.6 hPa | 0 mm | - | 0 W/m² | - |
| 1777444743 | 2.22° C | 64% | 1013.3 hPa | 0 mm | - | 0 W/m² | - |
| 1777444438 | 2.22° C | 63% | 1013.4 hPa | 0 mm | - | 0 W/m² | - |
| 1777444136 | 2.22° C | 63% | 1013.3 hPa | 0 mm | - | 0 W/m² | - |
| 1777443832 | 2.22° C | 64% | 1013.3 hPa | 0 mm | - | 0 W/m² | - |
| 1777443528 | 2.78° C | 64% | 1013 hPa | 0 mm | - | 0 W/m² | - |
| 1777443224 | 2.78° C | 63% | 1013.3 hPa | 0 mm | - | 0 W/m² | - |
| 1777442921 | 2.22° C | 64% | 1013.1 hPa | 0 mm | - | 0 W/m² | - |
| 1777442617 | 2.22° C | 66% | 1013.3 hPa | 0 mm | - | 0 W/m² | - |
| 1777442312 | 2.22° C | 67% | 1013.5 hPa | 0 mm | - | 0 W/m² | - |
| 1777442010 | 1.67° C | 68% | 1013.4 hPa | 0 mm | - | 0 W/m² | - |
| 1777441705 | 1.67° C | 71% | 1013.4 hPa | 0 mm | - | 0 W/m² | - |
| 1777441400 | 1.67° C | 70% | 1013.4 hPa | 0 mm | - | 0 W/m² | - |
| 1777441095 | 1.11° C | 71% | 1013.3 hPa | 0 mm | - | 0 W/m² | - |
| 1777440792 | 1.11° C | 72% | 1013.3 hPa | 0 mm | - | 0 W/m² | - |
* Rain latest hour (hover to see other rain measurements)
** Current wind speed in m/s (hover to see current wind gust speed)